Wetterdaten: Woche 28.12.15 - 03.01.16 (KW53)
Datum Zeit Temp. A. Feuchte A. Luftdruck Regen Wind Richtung Sonnenschein ET UV Solar Taupunkt Windchill Windben Empfang
28.12.2015 00:00 0,5 C 95 % 1033,9 hPa 0,0 l/m 2,0 km/h (1 Bft) O 0,00 h 0,000 mm 0,0 UV-I 0 W/m -0,2 C 0,5 C 4,3 km/h (1 Bft) 97,91 %
28.12.2015 01:00 -0,5 C 96 % 1033,9 hPa 0,0 l/m 1,6 km/h (1 Bft) O-NO 0,00 h 0,000 mm 0,0 UV-I 0 W/m -1,0 C -0,5 C 3,9 km/h (1 Bft) 99,16 %
28.12.2015 02:00 -0,5 C 97 % 1034,0 hPa 0,0 l/m 3,5 km/h (1 Bft) S 0,00 h 0,000 mm 0,0 UV-I 0 W/m -0,9 C -0,5 C 6,3 km/h (2 Bft) 98,06 %
28.12.2015 03:00 -1,1 C 97 % 1033,8 hPa 0,0 l/m 1,9 km/h (1 Bft) NO 0,00 h 0,000 mm 0,0 UV-I 0 W/m -1,5 C -1,1 C 3,9 km/h (1 Bft) 98,87 %
28.12.2015 04:00 -1,3 C 97 % 1033,5 hPa 0,0 l/m 3,2 km/h (1 Bft) NO 0,00 h 0,000 mm 0,0 UV-I 0 W/m -1,7 C -1,4 C 5,5 km/h (1 Bft) 97,94 %
28.12.2015 05:00 -1,9 C 97 % 1033,2 hPa 0,0 l/m 0,9 km/h (0 Bft) NO 0,00 h 0,000 mm 0,0 UV-I 0 W/m -2,3 C -1,9 C 2,5 km/h (1 Bft) 99,37 %
28.12.2015 06:00 -2,5 C 97 % 1032,8 hPa 0,0 l/m 1,0 km/h (0 Bft) S-SO 0,00 h 0,000 mm 0,0 UV-I 0 W/m -2,9 C -2,5 C 2,1 km/h (1 Bft) 98,00 %
28.12.2015 07:00 -3,3 C 97 % 1032,7 hPa 0,0 l/m 2,1 km/h (1 Bft) NO 0,00 h 0,000 mm 0,0 UV-I 3 W/m -3,7 C -3,3 C 3,7 km/h (1 Bft) 98,38 %
28.12.2015 08:00 -2,7 C 97 % 1032,8 hPa 0,0 l/m 2,1 km/h (1 Bft) S-SO 0,00 h 0,000 mm 0,0 UV-I 28 W/m -3,1 C -2,7 C 5,2 km/h (1 Bft) 97,85 %
28.12.2015 09:00 -1,8 C 97 % 1033,1 hPa 0,0 l/m 2,1 km/h (1 Bft) N-NO 1,00 h 0,000 mm 0,0 UV-I 123 W/m -2,2 C -1,8 C 4,0 km/h (1 Bft) 98,53 %
28.12.2015 10:00 0,2 C 96 % 1032,9 hPa 0,0 l/m 1,0 km/h (0 Bft) N-NO 1,00 h 0,051 mm 0,4 UV-I 206 W/m -0,3 C 0,2 C 2,7 km/h (1 Bft) 98,01 %
28.12.2015 11:00 1,1 C 95 % 1032,4 hPa 0,0 l/m 2,9 km/h (1 Bft) NO 1,00 h 0,076 mm 0,6 UV-I 255 W/m 0,4 C 1,1 C 4,5 km/h (1 Bft) 98,37 %
28.12.2015 12:00 2,5 C 92 % 1031,6 hPa 0,0 l/m 2,5 km/h (1 Bft) NO 1,00 h 0,076 mm 0,6 UV-I 279 W/m 1,2 C 2,5 C 4,7 km/h (1 Bft) 98,52 %
28.12.2015 13:00 4,2 C 88 % 1030,7 hPa 0,0 l/m 1,6 km/h (1 Bft) N-NO 1,00 h 0,102 mm 0,5 UV-I 254 W/m 2,3 C 4,2 C 3,7 km/h (1 Bft) 98,43 %
28.12.2015 14:00 5,0 C 86 % 1030,2 hPa 0,0 l/m 1,2 km/h (1 Bft) N-NO 1,00 h 0,101 mm 0,0 UV-I 165 W/m 2,9 C 5,0 C 2,7 km/h (1 Bft) 97,97 %
28.12.2015 15:00 4,7 C 87 % 1029,9 hPa 0,0 l/m 0,4 km/h (0 Bft) N-NO 0,58 h 0,077 mm 0,0 UV-I 52 W/m 2,7 C 4,7 C 1,6 km/h (1 Bft) 99,02 %
28.12.2015 16:00 2,5 C 92 % 1029,8 hPa 0,0 l/m 0,1 km/h (0 Bft) N 0,08 h 0,025 mm 0,0 UV-I 9 W/m 1,4 C 2,5 C 0,7 km/h (0 Bft) 97,80 %
28.12.2015 17:00 1,4 C 95 % 1030,0 hPa 0,0 l/m 1,2 km/h (1 Bft) O 0,00 h 0,000 mm 0,0 UV-I 0 W/m 0,7 C 1,4 C 2,5 km/h (1 Bft) 99,25 %
28.12.2015 18:00 0,8 C 96 % 1030,1 hPa 0,0 l/m 1,2 km/h (1 Bft) O 0,00 h 0,000 mm 0,0 UV-I 0 W/m 0,2 C 0,8 C 2,7 km/h (1 Bft) 97,81 %
28.12.2015 19:00 0,5 C 97 % 1030,2 hPa 0,0 l/m 1,3 km/h (1 Bft) O 0,00 h 0,000 mm 0,0 UV-I 0 W/m 0,0 C 0,5 C 2,9 km/h (1 Bft) 99,36 %
28.12.2015 20:00 0,6 C 97 % 1030,3 hPa 0,0 l/m 2,0 km/h (1 Bft) O-NO 0,00 h 0,000 mm 0,0 UV-I 0 W/m 0,2 C 0,6 C 3,6 km/h (1 Bft) 98,28 %
28.12.2015 21:00 -0,2 C 97 % 1030,1 hPa 0,0 l/m 0,3 km/h (0 Bft) O 0,00 h 0,000 mm 0,0 UV-I 0 W/m -0,6 C -0,2 C 1,2 km/h (1 Bft) 98,31 %
28.12.2015 22:00 -0,5 C 98 % 1030,0 hPa 0,0 l/m 0,2 km/h (0 Bft) S-SO 0,00 h 0,000 mm 0,0 UV-I 0 W/m -0,7 C -0,5 C 1,1 km/h (0 Bft) 99,52 %
28.12.2015 23:00 -1,2 C 98 % 1029,7 hPa 0,0 l/m 1,3 km/h (1 Bft) S-SO 0,00 h 0,000 mm 0,0 UV-I 0 W/m -1,5 C -1,2 C 2,9 km/h (1 Bft) 97,71 %
29.12.2015 00:00 -1,1 C 98 % 1029,4 hPa 0,0 l/m 1,1 km/h (1 Bft) S-SO 0,00 h 0,000 mm 0,0 UV-I 0 W/m -1,4 C -1,1 C 2,5 km/h (1 Bft) 99,43 %
29.12.2015 01:00 -0,9 C 98 % 1029,0 hPa 0,0 l/m 1,4 km/h (1 Bft) O-NO 0,00 h 0,000 mm 0,0 UV-I 0 W/m -1,3 C -0,9 C 3,3 km/h (1 Bft) 97,50 %
29.12.2015 02:00 -0,8 C 98 % 1028,8 hPa 0,0 l/m 2,3 km/h (1 Bft) O-NO 0,00 h 0,000 mm 0,0 UV-I 0 W/m -1,1 C -0,8 C 5,2 km/h (1 Bft) 98,78 %
29.12.2015 03:00 0,7 C 98 % 1028,4 hPa 0,0 l/m 4,9 km/h (1 Bft) O-NO 0,00 h 0,000 mm 0,0 UV-I 0 W/m 0,4 C -0,2 C 9,4 km/h (2 Bft) 98,58 %
29.12.2015 04:00 2,5 C 97 % 1028,2 hPa 0,2 l/m 13,6 km/h (3 Bft) O-NO 0,00 h 0,000 mm 0,0 UV-I 0 W/m 2,1 C -3,1 C 21,4 km/h (4 Bft) 98,78 %
29.12.2015 05:00 3,4 C 96 % 1028,0 hPa 0,0 l/m 16,9 km/h (3 Bft) O-NO 0,00 h 0,000 mm 0,0 UV-I 0 W/m 2,9 C -3,8 C 25,9 km/h (4 Bft) 98,53 %
29.12.2015 06:00 4,1 C 95 % 1027,9 hPa 0,0 l/m 22,3 km/h (4 Bft) O-NO 0,00 h 0,000 mm 0,0 UV-I 0 W/m 3,3 C -5,2 C 33,4 km/h (5 Bft) 98,74 %
29.12.2015 07:00 4,0 C 93 % 1027,9 hPa 0,0 l/m 23,6 km/h (4 Bft) O-NO 0,00 h 0,000 mm 0,0 UV-I 0 W/m 3,1 C -5,7 C 35,4 km/h (5 Bft) 98,91 %
29.12.2015 08:00 3,9 C 93 % 1028,2 hPa 0,0 l/m 19,5 km/h (3 Bft) O-NO 0,00 h 0,025 mm 0,0 UV-I 14 W/m 2,8 C -4,4 C 30,9 km/h (5 Bft) 98,72 %
29.12.2015 09:00 3,8 C 93 % 1028,2 hPa 0,0 l/m 18,7 km/h (3 Bft) NO 0,00 h 0,026 mm 0,0 UV-I 38 W/m 2,8 C -4,1 C 29,0 km/h (5 Bft) 99,00 %
29.12.2015 10:00 4,0 C 93 % 1028,4 hPa 0,0 l/m 16,7 km/h (3 Bft) NO 0,00 h 0,025 mm 0,0 UV-I 67 W/m 2,9 C -3,0 C 24,6 km/h (4 Bft) 98,13 %
29.12.2015 11:00 4,2 C 92 % 1028,0 hPa 0,0 l/m 14,7 km/h (3 Bft) O-NO 0,00 h 0,026 mm 0,3 UV-I 107 W/m 3,0 C -1,7 C 23,4 km/h (4 Bft) 99,22 %
29.12.2015 12:00 4,4 C 92 % 1027,6 hPa 0,0 l/m 16,7 km/h (3 Bft) O 0,00 h 0,050 mm 0,0 UV-I 100 W/m 3,2 C -2,5 C 25,5 km/h (4 Bft) 98,51 %
29.12.2015 13:00 4,4 C 92 % 1027,7 hPa 0,0 l/m 14,5 km/h (3 Bft) O-NO 0,00 h 0,051 mm 0,0 UV-I 78 W/m 3,2 C -1,3 C 21,9 km/h (4 Bft) 99,07 %
29.12.2015 14:00 4,4 C 92 % 1028,2 hPa 0,0 l/m 10,7 km/h (2 Bft) O-NO 0,00 h 0,051 mm 0,0 UV-I 68 W/m 3,2 C 1,1 C 17,8 km/h (3 Bft) 98,35 %
29.12.2015 15:00 3,9 C 92 % 1029,5 hPa 0,0 l/m 5,2 km/h (1 Bft) O 0,00 h 0,025 mm 0,0 UV-I 16 W/m 2,8 C 3,3 C 10,5 km/h (2 Bft) 98,93 %
29.12.2015 16:00 3,5 C 94 % 1030,3 hPa 0,0 l/m 2,8 km/h (1 Bft) O 0,00 h 0,000 mm 0,0 UV-I 3 W/m 2,6 C 3,5 C 4,8 km/h (1 Bft) 98,16 %
29.12.2015 17:00 3,4 C 94 % 1031,0 hPa 0,0 l/m 1,6 km/h (1 Bft) O-NO 0,00 h 0,000 mm 0,0 UV-I 0 W/m 2,5 C 3,4 C 4,4 km/h (1 Bft) 99,10 %
29.12.2015 18:00 3,3 C 95 % 1031,6 hPa 0,0 l/m 1,5 km/h (1 Bft) O 0,00 h 0,000 mm 0,0 UV-I 0 W/m 2,6 C 3,3 C 3,3 km/h (1 Bft) 98,38 %
29.12.2015 19:00 2,9 C 96 % 1032,0 hPa 0,0 l/m 3,0 km/h (1 Bft) O-NO 0,00 h 0,000 mm 0,0 UV-I 0 W/m 2,3 C 2,9 C 5,3 km/h (1 Bft) 99,31 %
29.12.2015 20:00 2,5 C 96 % 1032,1 hPa 0,0 l/m 1,7 km/h (1 Bft) O-NO 0,00 h 0,000 mm 0,0 UV-I 0 W/m 1,9 C 2,5 C 3,3 km/h (1 Bft) 98,05 %
29.12.2015 21:00 1,8 C 96 % 1032,4 hPa 0,0 l/m 1,9 km/h (1 Bft) S 0,00 h 0,000 mm 0,0 UV-I 0 W/m 1,3 C 1,8 C 4,1 km/h (1 Bft) 99,27 %
29.12.2015 22:00 1,0 C 96 % 1032,7 hPa 0,0 l/m 1,9 km/h (1 Bft) S 0,00 h 0,000 mm 0,0 UV-I 0 W/m 0,5 C 1,0 C 4,1 km/h (1 Bft) 97,67 %
29.12.2015 23:00 1,1 C 98 % 1033,0 hPa 0,0 l/m 0,7 km/h (0 Bft) O-NO 0,00 h 0,000 mm 0,0 UV-I 0 W/m 0,8 C 1,1 C 2,5 km/h (1 Bft) 99,44 %
30.12.2015 00:00 1,2 C 98 % 1032,9 hPa 0,0 l/m 1,3 km/h (1 Bft) O-NO 0,00 h 0,000 mm 0,0 UV-I 0 W/m 0,9 C 1,2 C 3,1 km/h (1 Bft) 97,92 %
30.12.2015 01:00 1,5 C 98 % 1033,0 hPa 0,0 l/m 1,0 km/h (0 Bft) SO 0,00 h 0,000 mm 0,0 UV-I 0 W/m 1,2 C 1,5 C 3,2 km/h (1 Bft) 99,50 %
30.12.2015 02:00 1,5 C 98 % 1032,9 hPa 0,0 l/m 1,1 km/h (0 Bft) SO 0,00 h 0,000 mm 0,0 UV-I 0 W/m 1,2 C 1,5 C 3,1 km/h (1 Bft) 98,02 %
30.12.2015 03:00 1,3 C 98 % 1032,7 hPa 0,0 l/m 3,4 km/h (1 Bft) O-SO 0,00 h 0,000 mm 0,0 UV-I 0 W/m 1,1 C 1,2 C 5,9 km/h (2 Bft) 99,12 %
30.12.2015 04:00 1,4 C 98 % 1032,6 hPa 0,0 l/m 5,4 km/h (1 Bft) O-NO 0,00 h 0,000 mm 0,0 UV-I 0 W/m 1,1 C 1,2 C 9,5 km/h (2 Bft) 97,76 %
30.12.2015 05:00 1,3 C 99 % 1032,6 hPa 0,0 l/m 9,3 km/h (2 Bft) O-NO 0,00 h 0,000 mm 0,0 UV-I 0 W/m 1,1 C -1,5 C 14,8 km/h (3 Bft) 99,31 %
30.12.2015 06:00 1,4 C 98 % 1032,6 hPa 0,0 l/m 11,0 km/h (2 Bft) O-NO 0,00 h 0,000 mm 0,0 UV-I 0 W/m 1,1 C -2,6 C 17,2 km/h (3 Bft) 97,50 %
30.12.2015 07:00 1,7 C 96 % 1032,7 hPa 0,0 l/m 18,1 km/h (3 Bft) O-NO 0,00 h 0,000 mm 0,0 UV-I 0 W/m 1,1 C -6,5 C 27,4 km/h (4 Bft) 99,14 %
30.12.2015 08:00 1,8 C 95 % 1032,8 hPa 0,0 l/m 20,7 km/h (4 Bft) O-NO 0,00 h 0,000 mm 0,0 UV-I 14 W/m 1,0 C -7,6 C 32,0 km/h (5 Bft) 98,30 %
30.12.2015 09:00 1,7 C 96 % 1032,7 hPa 0,0 l/m 24,7 km/h (4 Bft) NO 0,00 h 0,025 mm 0,0 UV-I 29 W/m 1,1 C -9,3 C 35,9 km/h (5 Bft) 99,79 %
30.12.2015 10:00 1,6 C 96 % 1032,7 hPa 0,0 l/m 25,9 km/h (4 Bft) O-NO 0,00 h 0,026 mm 0,0 UV-I 51 W/m 1,0 C -9,8 C 37,9 km/h (5 Bft) 97,80 %
30.12.2015 11:00 1,8 C 93 % 1032,0 hPa 0,0 l/m 29,2 km/h (5 Bft) NO 0,00 h 0,025 mm 0,0 UV-I 96 W/m 0,8 C -10,5 C 43,3 km/h (6 Bft) 99,07 %
30.12.2015 12:00 2,1 C 92 % 1031,2 hPa 0,0 l/m 22,4 km/h (4 Bft) O-NO 0,00 h 0,051 mm 0,0 UV-I 83 W/m 0,9 C -7,8 C 34,3 km/h (5 Bft) 98,30 %
30.12.2015 13:00 2,5 C 89 % 1030,2 hPa 0,0 l/m 26,3 km/h (4 Bft) O-NO 0,00 h 0,051 mm 0,0 UV-I 114 W/m 0,8 C -8,8 C 38,6 km/h (5 Bft) 99,12 %
30.12.2015 14:00 3,0 C 86 % 1029,7 hPa 0,0 l/m 27,0 km/h (4 Bft) O-NO 0,83 h 0,076 mm 0,0 UV-I 132 W/m 0,9 C -8,3 C 41,8 km/h (6 Bft) 98,00 %
30.12.2015 15:00 2,7 C 85 % 1029,6 hPa 0,0 l/m 28,1 km/h (4 Bft) O-NO 0,00 h 0,076 mm 0,0 UV-I 47 W/m 0,4 C -9,0 C 42,2 km/h (6 Bft) 99,37 %
30.12.2015 16:00 1,5 C 87 % 1029,4 hPa 0,0 l/m 28,2 km/h (4 Bft) O-NO 0,17 h 0,051 mm 0,0 UV-I 9 W/m -0,4 C -10,7 C 42,0 km/h (6 Bft) 98,06 %
30.12.2015 17:00 0,8 C 88 % 1029,3 hPa 0,0 l/m 31,4 km/h (5 Bft) O-NO 0,00 h 0,025 mm 0,0 UV-I 0 W/m -0,9 C -12,7 C 48,4 km/h (6 Bft) 99,07 %
30.12.2015 18:00 0,1 C 89 % 1029,0 hPa 0,0 l/m 28,5 km/h (4 Bft) O-NO 0,00 h 0,026 mm 0,0 UV-I 0 W/m -1,5 C -12,6 C 44,5 km/h (6 Bft) 97,76 %
30.12.2015 19:00 -0,2 C 88 % 1028,4 hPa 0,0 l/m 32,8 km/h (5 Bft) O-NO 0,00 h 0,025 mm 0,0 UV-I 0 W/m -2,0 C -14,5 C 46,8 km/h (6 Bft) 99,75 %
30.12.2015 20:00 -0,7 C 85 % 1027,9 hPa 0,0 l/m 28,7 km/h (4 Bft) O-NO 0,00 h 0,026 mm 0,0 UV-I 0 W/m -2,8 C -13,9 C 45,1 km/h (6 Bft) 98,28 %
30.12.2015 21:00 -1,0 C 83 % 1027,3 hPa 0,0 l/m 27,7 km/h (4 Bft) O-NO 0,00 h 0,025 mm 0,0 UV-I 0 W/m -3,5 C -14,1 C 41,8 km/h (6 Bft) 99,34 %
30.12.2015 22:00 -1,2 C 81 % 1026,8 hPa 0,0 l/m 24,8 km/h (4 Bft) O-NO 0,00 h 0,025 mm 0,0 UV-I 0 W/m -4,0 C -13,2 C 36,8 km/h (5 Bft) 98,09 %
30.12.2015 23:00 -1,5 C 79 % 1026,3 hPa 0,0 l/m 20,8 km/h (4 Bft) O-NO 0,00 h 0,026 mm 0,0 UV-I 0 W/m -4,6 C -11,9 C 31,7 km/h (5 Bft) 99,42 %
31.12.2015 00:00 -1,8 C 77 % 1025,5 hPa 0,0 l/m 24,4 km/h (4 Bft) O 0,00 h 0,000 mm 0,0 UV-I 0 W/m -5,4 C -13,9 C 37,4 km/h (5 Bft) 97,76 %
31.12.2015 01:00 -2,2 C 75 % 1025,0 hPa 0,0 l/m 25,3 km/h (4 Bft) O-NO 0,00 h 0,051 mm 0,0 UV-I 0 W/m -6,0 C -14,8 C 36,2 km/h (5 Bft) 99,21 %
31.12.2015 02:00 -2,7 C 74 % 1025,1 hPa 0,0 l/m 20,9 km/h (4 Bft) O-NO 0,00 h 0,051 mm 0,0 UV-I 0 W/m -6,6 C -13,5 C 31,7 km/h (5 Bft) 97,91 %
31.12.2015 03:00 -3,1 C 75 % 1024,8 hPa 0,0 l/m 18,3 km/h (3 Bft) O-NO 0,00 h 0,025 mm 0,0 UV-I 0 W/m -7,0 C -12,8 C 27,5 km/h (4 Bft) 99,30 %
31.12.2015 04:00 -3,7 C 76 % 1024,7 hPa 0,0 l/m 16,8 km/h (3 Bft) O-NO 0,00 h 0,025 mm 0,0 UV-I 0 W/m -7,3 C -12,5 C 25,6 km/h (4 Bft) 98,07 %
31.12.2015 05:00 -4,2 C 78 % 1025,3 hPa 0,0 l/m 11,5 km/h (2 Bft) O-NO 0,00 h 0,026 mm 0,0 UV-I 0 W/m -7,4 C -9,4 C 19,7 km/h (3 Bft) 99,12 %
31.12.2015 06:00 -4,6 C 81 % 1025,8 hPa 0,0 l/m 11,4 km/h (2 Bft) O-NO 0,00 h 0,025 mm 0,0 UV-I 0 W/m -7,4 C -9,6 C 18,4 km/h (3 Bft) 97,45 %
31.12.2015 07:00 -4,7 C 82 % 1026,2 hPa 0,0 l/m 15,3 km/h (3 Bft) O-NO 0,00 h 0,026 mm 0,0 UV-I 5 W/m -7,3 C -12,9 C 23,7 km/h (4 Bft) 99,57 %
31.12.2015 08:00 -4,8 C 84 % 1026,8 hPa 0,0 l/m 12,8 km/h (3 Bft) O-NO 0,00 h 0,025 mm 0,0 UV-I 24 W/m -7,2 C -11,1 C 19,7 km/h (3 Bft) 98,10 %
31.12.2015 09:00 -4,0 C 81 % 1027,3 hPa 0,0 l/m 14,2 km/h (3 Bft) O-NO 0,75 h 0,025 mm 0,0 UV-I 120 W/m -6,8 C -11,3 C 21,4 km/h (4 Bft) 99,28 %
31.12.2015 10:00 -3,0 C 77 % 1027,5 hPa 0,0 l/m 11,8 km/h (2 Bft) O-NO 1,00 h 0,051 mm 0,4 UV-I 227 W/m -6,4 C -8,2 C 18,1 km/h (3 Bft) 98,46 %
31.12.2015 11:00 -2,1 C 75 % 1027,7 hPa 0,0 l/m 8,8 km/h (2 Bft) O-NO 1,00 h 0,076 mm 0,6 UV-I 286 W/m -5,9 C -4,6 C 14,8 km/h (3 Bft) 97,84 %
31.12.2015 12:00 -1,4 C 73 % 1027,7 hPa 0,0 l/m 6,4 km/h (2 Bft) NO 1,00 h 0,102 mm 0,6 UV-I 293 W/m -5,5 C -2,1 C 12,5 km/h (3 Bft) 98,03 %
31.12.2015 13:00 -0,8 C 72 % 1027,7 hPa 0,0 l/m 3,6 km/h (1 Bft) O-NO 1,00 h 0,102 mm 0,5 UV-I 250 W/m -5,2 C -0,8 C 6,9 km/h (2 Bft) 98,77 %
31.12.2015 14:00 -0,6 C 74 % 1027,8 hPa 0,0 l/m 3,1 km/h (1 Bft) NO 0,58 h 0,076 mm 0,0 UV-I 118 W/m -4,6 C -0,6 C 6,1 km/h (2 Bft) 99,08 %
31.12.2015 15:00 -0,9 C 76 % 1028,0 hPa 0,0 l/m 3,0 km/h (1 Bft) NO 0,25 h 0,051 mm 0,0 UV-I 47 W/m -4,6 C -0,9 C 5,1 km/h (1 Bft) 98,22 %
31.12.2015 16:00 -1,4 C 79 % 1028,4 hPa 0,0 l/m 2,1 km/h (1 Bft) NO 0,00 h 0,025 mm 0,0 UV-I 6 W/m -4,4 C -1,4 C 3,7 km/h (1 Bft) 99,01 %
31.12.2015 17:00 -1,2 C 80 % 1028,5 hPa 0,0 l/m 4,3 km/h (1 Bft) NO 0,00 h 0,000 mm 0,0 UV-I 0 W/m -4,3 C -1,2 C 7,3 km/h (2 Bft) 98,34 %
31.12.2015 18:00 -1,1 C 78 % 1028,6 hPa 0,0 l/m 1,7 km/h (1 Bft) NO 0,00 h 0,000 mm 0,0 UV-I 0 W/m -4,4 C -1,1 C 3,5 km/h (1 Bft) 99,06 %
31.12.2015 19:00 -0,9 C 79 % 1028,5 hPa 0,0 l/m 1,1 km/h (1 Bft) NO 0,00 h 0,000 mm 0,0 UV-I 0 W/m -4,1 C -0,9 C 2,9 km/h (1 Bft) 98,02 %
31.12.2015 20:00 -1,0 C 82 % 1028,3 hPa 0,0 l/m 0,3 km/h (0 Bft) NO 0,00 h 0,000 mm 0,0 UV-I 0 W/m -3,6 C -1,0 C 1,3 km/h (1 Bft) 98,94 %
31.12.2015 21:00 -1,2 C 86 % 1027,9 hPa 0,0 l/m 0,6 km/h (0 Bft) NO 0,00 h 0,000 mm 0,0 UV-I 0 W/m -3,3 C -1,2 C 1,9 km/h (1 Bft) 98,01 %
31.12.2015 22:00 -1,3 C 90 % 1027,8 hPa 0,0 l/m 0,5 km/h (0 Bft) N-NO 0,00 h 0,000 mm 0,0 UV-I 0 W/m -2,7 C -1,3 C 2,4 km/h (1 Bft) 99,45 %
31.12.2015 23:00 -1,4 C 92 % 1027,8 hPa 0,0 l/m 1,8 km/h (1 Bft) NO 0,00 h 0,000 mm 0,0 UV-I 0 W/m -2,6 C -1,4 C 3,7 km/h (1 Bft) 97,86 %
01.01.2016 00:00 -1,3 C 93 % 1027,6 hPa 0,0 l/m 0,1 km/h (0 Bft) N 0,00 h 0,000 mm 0,0 UV-I 0 W/m -2,2 C -1,3 C 1,1 km/h (0 Bft) 98,77 %
01.01.2016 01:00 -1,3 C 94 % 1027,4 hPa 0,0 l/m 1,0 km/h (0 Bft) N-NO 0,00 h 0,000 mm 0,0 UV-I 0 W/m -2,2 C -1,3 C 3,5 km/h (1 Bft) 97,92 %
01.01.2016 02:00 -1,4 C 95 % 1027,4 hPa 0,0 l/m 1,4 km/h (1 Bft) NO 0,00 h 0,000 mm 0,0 UV-I 0 W/m -2,1 C -1,4 C 3,5 km/h (1 Bft) 99,36 %
01.01.2016 03:00 -1,4 C 94 % 1027,4 hPa 0,0 l/m 2,2 km/h (1 Bft) O-NO 0,00 h 0,000 mm 0,0 UV-I 0 W/m -2,2 C -1,4 C 3,9 km/h (1 Bft) 98,14 %
01.01.2016 04:00 -1,3 C 95 % 1027,5 hPa 0,0 l/m 0,3 km/h (0 Bft) N 0,00 h 0,000 mm 0,0 UV-I 0 W/m -2,0 C -1,3 C 1,1 km/h (0 Bft) 98,90 %
01.01.2016 05:00 -1,2 C 95 % 1027,5 hPa 0,0 l/m 0,1 km/h (0 Bft) N 0,00 h 0,000 mm 0,0 UV-I 0 W/m -1,9 C -1,2 C 0,9 km/h (0 Bft) 97,92 %
01.01.2016 06:00 -1,1 C 96 % 1027,9 hPa 0,0 l/m 0,3 km/h (0 Bft) O-NO 0,00 h 0,000 mm 0,0 UV-I 0 W/m -1,7 C -1,1 C 1,3 km/h (1 Bft) 99,22 %
01.01.2016 07:00 -0,9 C 96 % 1028,0 hPa 0,0 l/m 1,7 km/h (1 Bft) S 0,00 h 0,000 mm 0,0 UV-I 0 W/m -1,4 C -0,9 C 3,6 km/h (1 Bft) 97,73 %
01.01.2016 08:00 -0,7 C 96 % 1028,2 hPa 0,0 l/m 0,6 km/h (0 Bft) W 0,00 h 0,000 mm 0,0 UV-I 21 W/m -1,3 C -0,7 C 2,0 km/h (1 Bft) 99,22 %
01.01.2016 09:00 -0,6 C 96 % 1028,3 hPa 0,0 l/m 0,4 km/h (0 Bft) N 0,00 h 0,000 mm 0,0 UV-I 32 W/m -1,2 C -0,6 C 2,3 km/h (1 Bft) 98,09 %
01.01.2016 10:00 -0,3 C 96 % 1028,3 hPa 0,0 l/m 0,3 km/h (0 Bft) N 0,00 h 0,000 mm 0,0 UV-I 66 W/m -0,9 C -0,3 C 2,1 km/h (1 Bft) 99,51 %
01.01.2016 11:00 0,2 C 96 % 1028,2 hPa 0,6 l/m 2,5 km/h (1 Bft) S-SW 0,00 h 0,025 mm 0,0 UV-I 96 W/m -0,4 C 0,2 C 4,7 km/h (1 Bft) 97,84 %
01.01.2016 12:00 0,6 C 97 % 1027,7 hPa 0,8 l/m 4,3 km/h (1 Bft) S-SW 0,00 h 0,026 mm 0,0 UV-I 51 W/m 0,1 C 0,4 C 7,4 km/h (2 Bft) 98,46 %
01.01.2016 13:00 1,0 C 97 % 1027,2 hPa 0,2 l/m 3,0 km/h (1 Bft) S-SW 0,00 h 0,025 mm 0,0 UV-I 65 W/m 0,6 C 1,0 C 6,2 km/h (2 Bft) 97,88 %
01.01.2016 14:00 1,4 C 98 % 1026,9 hPa 0,2 l/m 7,6 km/h (2 Bft) SW 0,00 h 0,026 mm 0,0 UV-I 55 W/m 1,1 C 0,0 C 13,8 km/h (3 Bft) 98,71 %
01.01.2016 15:00 1,4 C 98 % 1026,7 hPa 0,0 l/m 3,4 km/h (1 Bft) W 0,00 h 0,025 mm 0,0 UV-I 27 W/m 1,2 C 1,4 C 7,2 km/h (2 Bft) 98,27 %
01.01.2016 16:00 1,4 C 98 % 1026,6 hPa 0,0 l/m 2,4 km/h (1 Bft) S-SW 0,00 h 0,000 mm 0,0 UV-I 5 W/m 1,1 C 1,4 C 4,8 km/h (1 Bft) 98,15 %
01.01.2016 17:00 1,1 C 98 % 1026,5 hPa 0,0 l/m 2,5 km/h (1 Bft) S 0,00 h 0,000 mm 0,0 UV-I 0 W/m 0,8 C 1,1 C 5,1 km/h (1 Bft) 98,43 %
01.01.2016 18:00 1,1 C 98 % 1026,1 hPa 0,0 l/m 2,6 km/h (1 Bft) S 0,00 h 0,000 mm 0,0 UV-I 0 W/m 0,8 C 1,1 C 4,7 km/h (1 Bft) 98,28 %
01.01.2016 19:00 1,2 C 97 % 1025,7 hPa 0,0 l/m 3,6 km/h (1 Bft) N-NO 0,00 h 0,000 mm 0,0 UV-I 0 W/m 0,7 C 1,1 C 7,5 km/h (2 Bft) 97,99 %
01.01.2016 20:00 0,5 C 98 % 1025,3 hPa 0,0 l/m 6,2 km/h (2 Bft) NO 0,00 h 0,000 mm 0,0 UV-I 0 W/m 0,2 C -0,1 C 11,8 km/h (2 Bft) 98,18 %
01.01.2016 21:00 0,4 C 98 % 1024,8 hPa 0,0 l/m 7,5 km/h (2 Bft) NO 0,00 h 0,000 mm 0,0 UV-I 0 W/m 0,1 C -0,7 C 12,4 km/h (3 Bft) 98,22 %
01.01.2016 22:00 0,3 C 98 % 1024,2 hPa 0,0 l/m 7,2 km/h (2 Bft) O-NO 0,00 h 0,000 mm 0,0 UV-I 0 W/m -0,0 C -0,7 C 12,1 km/h (2 Bft) 98,56 %
01.01.2016 23:00 0,1 C 98 % 1023,4 hPa 0,0 l/m 8,0 km/h (2 Bft) O-NO 0,00 h 0,000 mm 0,0 UV-I 0 W/m -0,2 C -1,5 C 13,6 km/h (3 Bft) 98,78 %
02.01.2016 00:00 -0,2 C 98 % 1022,8 hPa 0,0 l/m 9,8 km/h (2 Bft) O-NO 0,00 h 0,000 mm 0,0 UV-I 0 W/m -0,4 C -3,3 C 15,7 km/h (3 Bft) 98,06 %
02.01.2016 01:00 -0,5 C 98 % 1021,8 hPa 0,0 l/m 8,6 km/h (2 Bft) O-NO 0,00 h 0,000 mm 0,0 UV-I 0 W/m -0,7 C -2,6 C 15,0 km/h (3 Bft) 98,28 %
02.01.2016 02:00 -0,2 C 98 % 1021,2 hPa 0,0 l/m 15,9 km/h (3 Bft) NO 0,00 h 0,000 mm 0,0 UV-I 0 W/m -0,5 C -7,6 C 24,1 km/h (4 Bft) 98,08 %
02.01.2016 03:00 -0,3 C 98 % 1020,5 hPa 0,0 l/m 17,3 km/h (3 Bft) NO 0,00 h 0,000 mm 0,0 UV-I 0 W/m -0,6 C -8,5 C 25,6 km/h (4 Bft) 98,60 %
02.01.2016 04:00 -0,3 C 98 % 1019,7 hPa 0,0 l/m 19,1 km/h (3 Bft) O-NO 0,00 h 0,000 mm 0,0 UV-I 0 W/m -0,6 C -9,6 C 29,1 km/h (5 Bft) 97,60 %
02.01.2016 05:00 -0,2 C 97 % 1019,5 hPa 0,0 l/m 18,4 km/h (3 Bft) O-NO 0,00 h 0,000 mm 0,0 UV-I 0 W/m -0,7 C -9,0 C 28,6 km/h (4 Bft) 98,94 %
02.01.2016 06:00 -0,2 C 95 % 1019,3 hPa 0,0 l/m 21,2 km/h (4 Bft) O-NO 0,00 h 0,000 mm 0,0 UV-I 0 W/m -0,9 C -10,4 C 31,7 km/h (5 Bft) 97,66 %
02.01.2016 07:00 -0,0 C 94 % 1019,1 hPa 0,0 l/m 19,3 km/h (3 Bft) O-NO 0,00 h 0,000 mm 0,0 UV-I 0 W/m -0,8 C -9,3 C 28,6 km/h (4 Bft) 98,93 %
02.01.2016 08:00 0,3 C 93 % 1019,0 hPa 0,0 l/m 17,4 km/h (3 Bft) O-NO 0,00 h 0,000 mm 0,0 UV-I 9 W/m -0,7 C -7,9 C 27,6 km/h (4 Bft) 97,37 %
02.01.2016 09:00 0,3 C 93 % 1018,8 hPa 0,0 l/m 12,7 km/h (3 Bft) O-NO 0,00 h 0,000 mm 0,0 UV-I 24 W/m -0,7 C -5,1 C 20,2 km/h (4 Bft) 99,00 %
02.01.2016 10:00 0,4 C 92 % 1018,5 hPa 0,0 l/m 16,1 km/h (3 Bft) O-NO 0,00 h 0,025 mm 0,0 UV-I 32 W/m -0,7 C -7,1 C 25,1 km/h (4 Bft) 97,36 %
02.01.2016 11:00 0,3 C 93 % 1017,8 hPa 0,0 l/m 18,5 km/h (3 Bft) O-NO 0,00 h 0,026 mm 0,0 UV-I 30 W/m -0,8 C -8,4 C 27,6 km/h (4 Bft) 98,75 %
02.01.2016 12:00 0,2 C 92 % 1017,0 hPa 0,0 l/m 18,8 km/h (3 Bft) O-NO 0,00 h 0,025 mm 0,0 UV-I 63 W/m -1,0 C -8,8 C 28,2 km/h (4 Bft) 97,79 %
02.01.2016 13:00 -0,1 C 91 % 1016,3 hPa 0,0 l/m 19,6 km/h (3 Bft) O-NO 0,00 h 0,026 mm 0,0 UV-I 62 W/m -1,3 C -9,5 C 29,3 km/h (5 Bft) 99,15 %
02.01.2016 14:00 -0,2 C 92 % 1016,0 hPa 0,0 l/m 17,7 km/h (3 Bft) O-NO 0,00 h 0,025 mm 0,0 UV-I 38 W/m -1,4 C -8,7 C 25,1 km/h (4 Bft) 97,34 %
02.01.2016 15:00 -0,8 C 92 % 1015,9 hPa 0,0 l/m 23,1 km/h (4 Bft) O-NO 0,00 h 0,025 mm 0,0 UV-I 21 W/m -1,9 C -12,0 C 33,5 km/h (5 Bft) 99,09 %
02.01.2016 16:00 -1,3 C 93 % 1016,2 hPa 0,0 l/m 23,1 km/h (4 Bft) O-NO 0,00 h 0,026 mm 0,0 UV-I 4 W/m -2,2 C -12,6 C 35,0 km/h (5 Bft) 97,77 %
02.01.2016 17:00 -1,7 C 94 % 1016,3 hPa 0,0 l/m 28,1 km/h (4 Bft) NO 0,00 h 0,000 mm 0,0 UV-I 0 W/m -2,6 C -15,2 C 40,4 km/h (6 Bft) 99,22 %
02.01.2016 18:00 -2,2 C 94 % 1016,3 hPa 0,0 l/m 27,1 km/h (4 Bft) O-NO 0,00 h 0,000 mm 0,0 UV-I 0 W/m -3,0 C -15,5 C 39,1 km/h (6 Bft) 97,90 %
02.01.2016 19:00 -2,6 C 95 % 1016,3 hPa 0,0 l/m 26,6 km/h (4 Bft) O-NO 0,00 h 0,000 mm 0,0 UV-I 0 W/m -3,3 C -15,9 C 38,9 km/h (6 Bft) 99,12 %
02.01.2016 20:00 -2,8 C 95 % 1016,3 hPa 0,0 l/m 26,0 km/h (4 Bft) O-NO 0,00 h 0,000 mm 0,0 UV-I 0 W/m -3,5 C -15,9 C 37,7 km/h (5 Bft) 97,71 %
02.01.2016 21:00 -2,8 C 94 % 1016,0 hPa 0,0 l/m 24,7 km/h (4 Bft) O-NO 0,00 h 0,000 mm 0,0 UV-I 0 W/m -3,6 C -15,4 C 35,5 km/h (5 Bft) 99,11 %
02.01.2016 22:00 -2,9 C 94 % 1015,8 hPa 0,0 l/m 20,9 km/h (4 Bft) O-NO 0,00 h 0,000 mm 0,0 UV-I 0 W/m -3,7 C -13,8 C 32,1 km/h (5 Bft) 98,11 %
02.01.2016 23:00 -3,0 C 94 % 1015,9 hPa 0,0 l/m 21,0 km/h (4 Bft) O-NO 0,00 h 0,000 mm 0,0 UV-I 0 W/m -3,9 C -14,0 C 30,9 km/h (5 Bft) 99,08 %
03.01.2016 00:00 -3,1 C 93 % 1016,1 hPa 0,0 l/m 18,0 km/h (3 Bft) O-NO 0,00 h 0,000 mm 0,0 UV-I 0 W/m -4,1 C -12,5 C 27,5 km/h (4 Bft) 98,02 %
03.01.2016 01:00 -3,3 C 93 % 1016,0 hPa 0,0 l/m 17,4 km/h (3 Bft) O-NO 0,00 h 0,000 mm 0,0 UV-I 0 W/m -4,2 C -12,3 C 25,9 km/h (4 Bft) 99,58 %
03.01.2016 02:00 -3,5 C 93 % 1015,8 hPa 0,0 l/m 19,6 km/h (3 Bft) O-NO 0,00 h 0,000 mm 0,0 UV-I 0 W/m -4,4 C -13,9 C 29,8 km/h (5 Bft) 97,84 %
03.01.2016 03:00 -3,9 C 94 % 1015,6 hPa 0,0 l/m 20,0 km/h (4 Bft) O-NO 0,00 h 0,000 mm 0,0 UV-I 0 W/m -4,7 C -14,6 C 30,6 km/h (5 Bft) 99,24 %
03.01.2016 04:00 -4,2 C 94 % 1015,5 hPa 0,0 l/m 20,0 km/h (4 Bft) NO 0,00 h 0,000 mm 0,0 UV-I 0 W/m -5,0 C -15,0 C 30,1 km/h (5 Bft) 97,99 %
03.01.2016 05:00 -4,5 C 94 % 1015,5 hPa 0,0 l/m 16,1 km/h (3 Bft) NO 0,00 h 0,000 mm 0,0 UV-I 0 W/m -5,3 C -13,1 C 24,5 km/h (4 Bft) 99,21 %
03.01.2016 06:00 -4,8 C 95 % 1015,3 hPa 0,0 l/m 16,2 km/h (3 Bft) O-NO 0,00 h 0,000 mm 0,0 UV-I 0 W/m -5,5 C -13,5 C 23,7 km/h (4 Bft) 98,06 %
03.01.2016 07:00 -5,0 C 94 % 1015,3 hPa 0,0 l/m 19,3 km/h (3 Bft) O-NO 0,00 h 0,000 mm 0,0 UV-I 0 W/m -5,9 C -15,7 C 28,9 km/h (5 Bft) 99,15 %
03.01.2016 08:00 -5,2 C 94 % 1015,3 hPa 0,0 l/m 20,1 km/h (4 Bft) O-NO 0,00 h 0,000 mm 0,0 UV-I 22 W/m -6,0 C -16,4 C 29,1 km/h (5 Bft) 98,23 %
03.01.2016 09:00 -5,2 C 93 % 1015,3 hPa 0,0 l/m 18,5 km/h (3 Bft) O-NO 0,00 h 0,000 mm 0,0 UV-I 78 W/m -6,1 C -15,5 C 27,5 km/h (4 Bft) 98,32 %
03.01.2016 10:00 -5,0 C 92 % 1015,1 hPa 0,0 l/m 18,3 km/h (3 Bft) O-NO 0,33 h 0,025 mm 0,0 UV-I 142 W/m -6,1 C -15,2 C 26,4 km/h (4 Bft) 98,17 %
03.01.2016 11:00 -5,0 C 91 % 1014,5 hPa 0,0 l/m 19,3 km/h (3 Bft) O-NO 0,00 h 0,051 mm 0,0 UV-I 165 W/m -6,2 C -15,6 C 27,5 km/h (4 Bft) 98,76 %
03.01.2016 12:00 -4,8 C 91 % 1013,7 hPa 0,0 l/m 15,7 km/h (3 Bft) NO 0,08 h 0,051 mm 0,0 UV-I 158 W/m -6,1 C -13,3 C 23,6 km/h (4 Bft) 98,03 %
03.01.2016 13:00 -4,8 C 91 % 1012,9 hPa 0,0 l/m 15,0 km/h (3 Bft) O 0,00 h 0,051 mm 0,0 UV-I 98 W/m -6,1 C -12,8 C 21,7 km/h (4 Bft) 99,36 %
03.01.2016 14:00 -4,9 C 91 % 1012,5 hPa 0,0 l/m 15,4 km/h (3 Bft) O-NO 0,00 h 0,025 mm 0,0 UV-I 75 W/m -6,1 C -13,2 C 22,5 km/h (4 Bft) 98,23 %
03.01.2016 15:00 -5,1 C 92 % 1012,1 hPa 0,0 l/m 14,3 km/h (3 Bft) O-NO 0,00 h 0,026 mm 0,0 UV-I 26 W/m -6,3 C -12,6 C 21,3 km/h (4 Bft) 98,83 %
03.01.2016 16:00 -5,2 C 92 % 1011,6 hPa 0,0 l/m 13,9 km/h (3 Bft) O-NO 0,00 h 0,025 mm 0,0 UV-I 6 W/m -6,3 C -12,5 C 21,6 km/h (4 Bft) 98,30 %
03.01.2016 17:00 -5,4 C 91 % 1011,0 hPa 0,0 l/m 16,1 km/h (3 Bft) NO 0,00 h 0,000 mm 0,0 UV-I 0 W/m -6,6 C -14,2 C 24,4 km/h (4 Bft) 99,04 %
03.01.2016 18:00 -5,7 C 91 % 1010,0 hPa 0,0 l/m 19,3 km/h (3 Bft) NO 0,00 h 0,000 mm 0,0 UV-I 0 W/m -6,9 C -16,5 C 27,8 km/h (4 Bft) 98,00 %
03.01.2016 19:00 -5,8 C 91 % 1009,0 hPa 0,0 l/m 17,7 km/h (3 Bft) NO 0,00 h 0,000 mm 0,0 UV-I 0 W/m -7,0 C -15,7 C 26,7 km/h (4 Bft) 98,62 %
03.01.2016 20:00 -5,9 C 91 % 1007,8 hPa 0,0 l/m 20,3 km/h (4 Bft) NO 0,00 h 0,000 mm 0,0 UV-I 0 W/m -7,1 C -17,4 C 28,9 km/h (5 Bft) 98,80 %
03.01.2016 21:00 -6,0 C 91 % 1006,4 hPa 0,0 l/m 20,8 km/h (4 Bft) O-NO 0,00 h 0,000 mm 0,0 UV-I 0 W/m -7,2 C -17,8 C 29,7 km/h (5 Bft) 98,39 %
03.01.2016 22:00 -6,3 C 92 % 1004,5 hPa 0,0 l/m 23,4 km/h (4 Bft) O-NO 0,00 h 0,000 mm 0,0 UV-I 0 W/m -7,4 C -19,5 C 36,9 km/h (5 Bft) 98,72 %
03.01.2016 23:00 -6,4 C 92 % 1003,2 hPa 0,0 l/m 19,2 km/h (3 Bft) O-NO 0,00 h 0,000 mm 0,0 UV-I 0 W/m -7,5 C -17,3 C 29,6 km/h (5 Bft) 98,22 %
Min-Datum _ 03.01.16 31.12.15 03.01.16 - 28.12.15 - - - - - 31.12.15 03.01.16 28.12.15 01.01.16
_ Min-Zeit 22:25 13:20 23:55 - 03:05 - - - - - 06:15 22:35 03:10 11:40
Minimum _ -6,4 C 71 % 1002,6 hPa - 0,0 km/h (0 Bft) - - - - - -7,5 C -21,2 C 0,0 km/h (0 Bft) 90,35 %
Max-Datum _ 28.12.15 30.12.15 28.12.15 01.01.16 30.12.15 - 28.12.15 28.12.15 28.12.15 31.12.15 29.12.15 28.12.15 30.12.15 28.12.15
_ Max-Zeit 14:25 05:30 02:00 12:00 19:00 - 14:10 13:00 11:15 12:05 13:55 15:15 19:00 00:40
Maximum _ 5,2 C 99 % 1034,3 hPa 0,8 l/m 40,0 km/h
O-NO (6 Bft)
- 0,17 h 0,102 mm 0,6 UV-I 299 W/m 3,4 C 5,2 C 56,3 km/h
O-NO (7 Bft)
100,00 %
Durchschnitt _ -0,6 C 92 % 1025,2 hPa #2,0 l/m 11,5 km/h (2 Bft) O-NO #13:40 h #2,667 mm 0,5 UV-I 81 W/m -1,8 C -5,6 C 17,8 km/h (3 Bft) 98,52 %